Terminal Aerodrome Forecast
Issued by NWS

Home | Current Version | Previous Version | Text Only | Print | Product List | Glossary On
Versions: 1 2 3 4 5 6 7 8 9 10 11 12 13 14 15 16
000
FTUS44 KJAN 021803 AAA
TAFGTR
TAF AMD
KGTR 021803Z 0218/0318 25010G15KT P6SM VCSH OVC120
     FM021900 25015G21KT P6SM VCTS SCT040CB BKN100
     FM031500 26009KT P6SM OVC050=

USA.gov is the U.S. government's official web portal to all federal, state and local government web resources and services.